Time;durP1;ratioP1;P1;durP2;ratioP2;P2;SDS_P1;SDS_P2;PMS_P1;PMS_P2;Temp;Humidity;BMP_temperature;BMP_pressure;BME280_temperature;BME280_humidity;BME280_pressure;Samples;Min_cycle;Max_cycle;Signal;HPM_P1;HPM_P2
2022/02/20 00:00:59;;;;;;;8.85;1.75;;;;;;;;;;5033588;28;20048;-85
2022/02/20 00:03:26;;;;;;;8.25;2.08;;;;;;;;;;5035682;28;20077;-85
2022/02/20 00:05:51;;;;;;;9.52;2.45;;;;;;;;;;5036279;28;20185;-85
2022/02/20 00:08:18;;;;;;;7.32;1.80;;;;;;;;;;5030266;28;20050;-86
2022/02/20 00:10:44;;;;;;;4.68;1.60;;;;;;;5.28;100.00;67361.75;5038376;28;20052;-86
2022/02/20 00:13:11;;;;;;;8.57;2.20;;;;;;;;;;5040458;28;20052;-86
2022/02/20 00:15:40;;;;;;;7.63;1.40;;;;;;;5.27;100.00;67360.63;5037081;28;20046;-86
2022/02/20 00:18:08;;;;;;;8.80;1.98;;;;;;;5.25;100.00;67358.91;5032513;28;20057;-85
2022/02/20 00:20:36;;;;;;;5.70;2.13;;;;;;;5.23;100.00;67356.09;5040804;28;20053;-85
2022/02/20 00:23:03;;;;;;;5.20;1.35;;;;;;;;;;5021325;28;20083;-85
2022/02/20 00:25:34;;;;;;;6.68;1.65;;;;;;;5.18;100.00;67354.22;5033835;28;20544;-85
2022/02/20 00:28:02;;;;;;;5.07;1.58;;;;;;;5.23;100.00;67358.72;5031158;28;20053;-85
2022/02/20 00:30:28;;;;;;;7.15;2.03;;;;;;;5.22;100.00;67350.25;5055550;28;20045;-87
2022/02/20 00:32:58;;;;;;;7.90;2.58;;;;;;;5.23;100.00;67356.09;5037379;28;20049;-86
2022/02/20 00:35:34;;;;;;;13.32;2.22;;;;;;;5.19;100.00;67352.13;5048532;28;20057;-85
2022/02/20 00:38:03;;;;;;;8.48;1.80;;;;;;;;;;5042850;28;20107;-85
2022/02/20 00:40:29;;;;;;;5.68;2.00;;;;;;;;;;5042565;28;20045;-87
2022/02/20 00:43:02;;;;;;;7.95;1.83;;;;;;;5.10;100.00;67345.19;5039896;28;20105;-86
2022/02/20 00:45:28;;;;;;;8.45;2.47;;;;;;;5.12;100.00;67346.84;5038407;28;20037;-85
2022/02/20 00:48:01;;;;;;;7.18;1.48;;;;;;;5.12;100.00;67344.22;5040702;28;20097;-85
2022/02/20 00:50:29;;;;;;;4.50;1.77;;;;;;;5.12;100.00;67344.81;5051150;28;20060;-86
2022/02/20 00:53:02;;;;;;;8.35;1.95;;;;;;;5.11;100.00;67343.66;5046547;28;20128;-85
2022/02/20 00:55:30;;;;;;;11.05;2.30;;;;;;;5.13;100.00;67340.66;5038738;28;20114;-86
2022/02/20 00:57:57;;;;;;;4.78;2.03;;;;;;;5.11;100.00;67337.81;5041287;28;20041;-85
2022/02/20 01:00:26;;;;;;;8.50;1.73;;;;;;;5.08;100.00;67340.28;5037378;28;20068;-86
2022/02/20 01:02:57;;;;;;;9.48;2.38;;;;;;;5.09;100.00;67341.41;5054304;28;20049;-86
2022/02/20 01:05:27;;;;;;;4.85;1.95;;;;;;;5.09;100.00;67335.56;5048218;28;20045;-87
2022/02/20 01:07:59;;;;;;;6.47;2.15;;;;;;;5.10;100.00;67341.97;5042976;28;20037;-85
2022/02/20 01:10:34;;;;;;;10.93;2.25;;;;;;;;;;5025257;28;20051;-86
2022/02/20 01:13:01;;;;;;;5.25;1.80;;;;;;;;;;5045439;28;20041;-85
2022/02/20 01:15:29;;;;;;;7.35;2.08;;;;;;;5.05;100.00;67336.88;5055929;28;20041;-85
2022/02/20 01:17:57;;;;;;;5.90;1.50;;;;;;;;;;5026167;28;20033;-85
2022/02/20 01:20:23;;;;;;;7.53;1.83;;;;;;;4.85;100.00;67316.94;5032255;28;20053;-86
2022/02/20 01:22:50;;;;;;;5.10;1.88;;;;;;;4.77;100.00;67307.91;5041100;28;20096;-85
2022/02/20 01:25:17;;;;;;;9.27;1.92;;;;;;;4.75;100.00;67304.13;5043487;28;20041;-86
2022/02/20 01:27:51;;;;;;;3.80;1.42;;;;;;;4.67;100.00;67294.53;5035842;28;20069;-85
2022/02/20 01:30:19;;;;;;;9.75;1.80;;;;;;;4.67;100.00;67295.09;5022316;28;20104;-86
2022/02/20 01:32:45;;;;;;;6.40;1.77;;;;;;;4.59;100.00;67285.50;5041098;28;20049;-85
2022/02/20 01:35:10;;;;;;;5.00;1.73;;;;;;;4.52;100.00;67278.19;5028293;28;20052;-85
2022/02/20 01:37:38;;;;;;;6.10;1.52;;;;;;;4.45;100.00;67270.81;5039780;28;20041;-86
2022/02/20 01:40:05;;;;;;;6.53;2.00;;;;;;;4.44;100.00;67271.78;5028974;28;20069;-85
2022/02/20 01:42:36;;;;;;;9.27;2.70;;;;;;;4.43;100.00;67270.63;5035836;28;20099;-85
2022/02/20 01:45:01;;;;;;;4.55;1.60;;;;;;;4.32;100.00;67256.16;5033295;28;20041;-86
2022/02/20 01:47:31;;;;;;;5.10;1.70;;;;;;;;;;5053338;28;20034;-86
2022/02/20 01:49:58;;;;;;;8.10;1.70;;;;;;;4.32;100.00;67258.22;5037009;28;20136;-86
2022/02/20 01:52:24;;;;;;;5.00;1.60;;;;;;;4.31;100.00;67255.03;5044064;28;20033;-85
2022/02/20 01:54:51;;;;;;;8.48;2.03;;;;;;;4.24;100.00;67252.97;5037378;28;20056;-86
2022/02/20 01:57:18;;;;;;;7.22;1.92;;;;;;;4.26;100.00;67252.59;5040286;28;20045;-86
2022/02/20 01:59:44;;;;;;;5.38;1.70;;;;;;;4.21;100.00;67244.31;5036590;28;20048;-86
2022/02/20 02:02:10;;;;;;;3.30;0.98;;;;;;;4.12;100.00;67238.84;5041553;28;20045;-86
2022/02/20 02:04:36;;;;;;;8.90;1.92;;;;;;;4.16;100.00;67238.66;5043551;28;20079;-86
2022/02/20 02:07:01;;;;;;;4.72;1.65;;;;;;;4.17;100.00;67239.22;5031489;28;20053;-86
2022/02/20 02:09:27;;;;;;;4.90;1.50;;;;;;;;;;5033799;28;20049;-87
2022/02/20 02:11:58;;;;;;;6.78;1.80;;;;;;;4.14;100.00;67236.41;5040687;28;20106;-86
2022/02/20 02:14:24;;;;;;;5.60;1.80;;;;;;;4.15;100.00;67240.16;5030190;28;20136;-87
2022/02/20 02:16:49;;;;;;;5.80;1.52;;;;;;;;;;5035701;28;20097;-85
2022/02/20 02:19:15;;;;;;;3.83;1.30;;;;;;;4.05;100.00;67229.44;5033951;28;20128;-86
2022/02/20 02:21:41;;;;;;;6.60;1.85;;;;;;;4.11;100.00;67235.09;5035826;28;20146;-87
2022/02/20 02:24:08;;;;;;;6.47;1.65;;;;;;;4.11;100.00;67233.00;5034845;28;20037;-85
2022/02/20 02:26:34;;;;;;;7.57;2.22;;;;;;;4.07;100.00;67231.13;5035301;28;20077;-87
2022/02/20 02:29:00;;;;;;;3.42;1.60;;;;;;;4.06;100.00;67230.03;5027718;28;20053;-89
2022/02/20 02:31:34;;;;;;;3.80;1.35;;;;;;;4.06;100.00;67227.94;5031461;28;20061;-85
2022/02/20 02:34:00;;;;;;;4.07;1.60;;;;;;;4.04;100.00;67227.75;5038607;28;20139;-85
2022/02/20 02:36:26;;;;;;;5.18;1.35;;;;;;;4.02;100.00;67222.84;5035413;28;20092;-93
2022/02/20 02:38:52;;;;;;;3.28;1.45;;;;;;;;;;5033848;28;20029;-89
2022/02/20 02:41:19;;;;;;;4.00;1.35;;;;;;;4.05;100.00;67231.50;5029696;28;20123;-89
2022/02/20 02:43:45;;;;;;;5.28;1.85;;;;;;;4.07;100.00;67231.13;5033603;28;20049;-91
2022/02/20 02:46:11;;;;;;;3.30;1.50;;;;;;;4.10;100.00;67231.31;5006249;28;20045;-85
2022/02/20 02:48:48;;;;;;;4.07;1.63;;;;;;;4.09;100.00;67233.41;5006018;28;20041;-91
2022/02/20 02:51:14;;;;;;;5.78;1.88;;;;;;;4.04;100.00;67228.31;5005108;28;20398;-89
2022/02/20 02:53:39;;;;;;;8.15;1.40;;;;;;;4.03;100.00;67226.63;5011549;28;20493;-87
2022/02/20 02:56:05;;;;;;;6.30;1.58;;;;;;;4.04;100.00;67227.75;5009846;28;20119;-90
2022/02/20 02:58:33;;;;;;;4.80;1.40;;;;;;;4.01;100.00;67221.72;5010166;28;20096;-91
2022/02/20 03:01:01;;;;;;;4.33;1.43;;;;;;;3.99;100.00;67219.47;4995270;28;20045;-89
2022/02/20 03:03:27;;;;;;;5.03;1.35;;;;;;;3.94;100.00;67219.09;5024878;28;20487;-89
2022/02/20 03:05:57;;;;;;;3.95;1.50;;;;;;;4.03;100.00;67224.00;5012196;28;20048;-87
2022/02/20 03:08:23;;;;;;;3.15;1.20;;;;;;;3.97;100.00;67217.22;5032821;28;20482;-88
2022/02/20 03:11:00;;;;;;;3.83;1.40;;;;;;;3.99;100.00;67222.09;5026028;28;20110;-89
2022/02/20 03:13:27;;;;;;;3.90;1.50;;;;;;;3.97;100.00;67222.47;5043690;28;20045;-90
2022/02/20 03:15:52;;;;;;;5.57;1.30;;;;;;;3.97;100.00;67222.47;4996748;28;20048;-86
2022/02/20 03:18:18;;;;;;;2.50;1.35;;;;;;;3.98;100.00;67224.19;5024591;28;20041;-88
2022/02/20 03:20:44;;;;;;;6.57;2.03;;;;;;;3.99;100.00;67220.03;5022906;28;20038;-88
2022/02/20 03:23:10;;;;;;;3.47;1.23;;;;;;;3.94;100.00;67214.41;5033093;28;20091;-85
2022/02/20 03:25:37;;;;;;;5.18;1.75;;;;;;;3.93;100.00;67215.91;5033071;28;20047;-86
2022/02/20 03:28:08;;;;;;;3.50;1.80;;;;;;;3.97;100.00;67223.06;5026812;28;20060;-87
2022/02/20 03:30:35;;;;;;;3.53;1.33;;;;;;;3.99;100.00;67219.47;5029512;28;20119;-89
2022/02/20 03:33:06;;;;;;;3.72;1.23;;;;;;;;;;5028815;28;20095;-87
2022/02/20 03:35:34;;;;;;;3.85;1.30;;;;;;;3.94;100.00;67213.81;5044634;28;20041;-88
2022/02/20 03:38:01;;;;;;;2.45;1.15;;;;;;;;;;5030461;28;20072;-92
2022/02/20 03:40:26;;;;;;;2.45;1.10;;;;;;;3.93;100.00;67215.34;5027393;28;20525;-90
2022/02/20 03:42:56;;;;;;;2.08;1.08;;;;;;;3.99;100.00;67222.09;5037728;28;20049;-86
2022/02/20 03:45:22;;;;;;;2.95;1.10;;;;;;;;;;5033809;28;20107;-87
2022/02/20 03:47:51;;;;;;;3.10;1.45;;;;;;;3.97;100.00;67219.84;5034880;28;20038;-87
2022/02/20 03:50:18;;;;;;;5.95;1.63;;;;;;;3.95;100.00;67218.16;5032924;28;20049;-87
2022/02/20 03:52:45;;;;;;;5.03;1.20;;;;;;;3.97;100.00;67219.84;5036275;28;20244;-87
2022/02/20 03:55:13;;;;;;;3.05;1.05;;;;;;;3.99;100.00;67219.47;5031846;28;20038;-86
2022/02/20 03:57:41;;;;;;;5.25;1.20;;;;;;;3.97;100.00;67219.84;5031306;28;20559;-86
2022/02/20 04:00:10;;;;;;;4.03;1.10;;;;;;;3.96;100.00;67218.72;5031510;28;20105;-86
2022/02/20 04:02:38;;;;;;;;;;;;;;;3.96;100.00;67216.09;5028767;28;20498;-86
2022/02/20 04:05:12;;;;;;;3.40;1.20;;;;;;;3.90;100.00;67212.50;5032101;28;19923;-89
2022/02/20 04:07:39;;;;;;;4.80;1.35;;;;;;;3.94;100.00;67219.09;5039128;28;20123;-91
2022/02/20 04:10:12;;;;;;;1.88;1.20;;;;;;;3.92;100.00;67211.59;5028511;28;20056;-87
2022/02/20 04:12:40;;;;;;;7.30;2.00;;;;;;;3.97;100.00;67217.22;5028950;28;20116;-89
2022/02/20 04:15:07;;;;;;;4.32;2.38;;;;;;;4.02;100.00;67223.41;5016865;28;20761;-86
2022/02/20 04:17:42;;;;;;;4.68;2.58;;;;;;;;;;5032755;28;20069;-88
2022/02/20 04:20:08;;;;;;;5.93;2.97;;;;;;;;;;5013551;28;20116;-90
2022/02/20 04:22:35;;;;;;;7.53;3.10;;;;;;;4.00;100.00;67221.19;5023391;28;20042;-91
2022/02/20 04:25:02;;;;;;;5.60;3.10;;;;;;;;;;5028515;28;20601;-91
2022/02/20 04:27:27;;;;;;;7.85;4.07;;;;;;;4.04;100.00;67227.75;5035109;28;20049;-87
2022/02/20 04:29:53;;;;;;;6.78;3.58;;;;;;;4.04;100.00;67230.94;5029091;28;20228;-91
2022/02/20 04:32:19;;;;;;;8.65;4.18;;;;;;;;;;5039116;28;20044;-86
2022/02/20 04:34:45;;;;;;;10.57;5.03;;;;;;;4.10;100.00;67231.88;5039456;28;20220;-86
2022/02/20 04:37:10;;;;;;;6.97;3.75;;;;;;;4.10;100.00;67231.88;5036267;28;20045;-88
2022/02/20 04:39:42;;;;;;;7.13;3.05;;;;;;;4.02;100.00;67222.84;5035502;28;20043;-88
2022/02/20 04:42:14;;;;;;;6.45;3.00;;;;;;;4.04;100.00;67228.31;5037728;28;20497;-90
2022/02/20 04:44:39;;;;;;;5.90;3.55;;;;;;;4.05;100.00;67226.81;5048589;28;20044;-90
2022/02/20 04:47:05;;;;;;;6.10;2.83;;;;;;;4.03;100.00;67227.19;5036102;28;20055;-85
2022/02/20 04:49:31;;;;;;;5.50;2.30;;;;;;;4.04;100.00;67228.31;5041408;28;20494;-85
2022/02/20 04:51:57;;;;;;;5.28;2.92;;;;;;;4.04;100.00;67228.31;5055257;28;20049;-85
2022/02/20 04:54:24;;;;;;;8.15;3.50;;;;;;;4.10;100.00;67239.22;5050016;28;20037;-86
2022/02/20 04:56:56;;;;;;;6.82;2.80;;;;;;;4.04;100.00;67225.13;5040128;28;20033;-88
2022/02/20 04:59:22;;;;;;;6.78;3.03;;;;;;;4.02;100.00;67225.50;5040189;28;20042;-85
2022/02/20 05:01:48;;;;;;;6.90;2.65;;;;;;;;;;5032931;28;20045;-86
2022/02/20 05:04:15;;;;;;;4.68;2.40;;;;;;;4.03;100.00;67226.63;5034240;28;20494;-85
2022/02/20 05:06:42;;;;;;;6.85;3.00;;;;;;;4.00;100.00;67221.19;5031546;28;20050;-85
2022/02/20 05:09:17;;;;;;;5.03;3.03;;;;;;;4.00;100.00;67221.19;5051543;28;20077;-86
2022/02/20 05:11:46;;;;;;;7.15;3.67;;;;;;;4.00;100.00;67220.59;5041799;28;20034;-85
2022/02/20 05:14:12;;;;;;;8.25;3.53;;;;;;;3.98;100.00;67218.34;5025471;28;20846;-85
2022/02/20 05:16:39;;;;;;;8.00;3.10;;;;;;;;;;5016986;28;20064;-87
2022/02/20 05:19:07;;;;;;;8.27;3.17;;;;;;;3.97;100.00;67220.44;5023142;28;20058;-86
2022/02/20 05:21:33;;;;;;;9.75;3.25;;;;;;;3.98;100.00;67218.91;5019899;28;20066;-86
2022/02/20 05:24:00;;;;;;;6.47;3.17;;;;;;;3.97;100.00;67223.06;5022390;28;20473;-88
2022/02/20 05:26:25;;;;;;;5.85;3.13;;;;;;;3.97;100.00;67223.06;5046140;28;20113;-85
2022/02/20 05:28:51;;;;;;;9.27;3.40;;;;;;;;;;5033512;28;20065;-85
2022/02/20 05:31:18;;;;;;;11.77;3.47;;;;;;;;;;5055707;28;20049;-88
2022/02/20 05:33:43;;;;;;;7.93;3.70;;;;;;;4.00;100.00;67223.22;5039391;28;20041;-85
2022/02/20 05:36:15;;;;;;;8.02;3.58;;;;;;;3.96;100.00;67216.09;5036780;28;20105;-85
2022/02/20 05:38:45;;;;;;;8.20;3.53;;;;;;;3.97;100.00;67217.22;5043676;28;20037;-86
2022/02/20 05:41:20;;;;;;;6.93;2.75;;;;;;;3.95;100.00;67220.22;5022753;28;20066;-90
2022/02/20 05:43:47;;;;;;;8.60;3.45;;;;;;;3.94;100.00;67213.81;5022065;28;20117;-85
2022/02/20 05:46:14;;;;;;;8.25;3.80;;;;;;;3.96;100.00;67218.72;5014858;28;20056;-86
2022/02/20 05:48:41;;;;;;;6.75;3.58;;;;;;;3.98;100.00;67218.91;5015433;28;20083;-86
2022/02/20 05:51:07;;;;;;;8.82;3.40;;;;;;;;;;5016246;28;20042;-87
2022/02/20 05:53:35;;;;;;;6.97;3.40;;;;;;;3.99;100.00;67214.22;5013003;28;20068;-88
2022/02/20 05:56:15;;;;;;;7.88;3.20;;;;;;;3.95;100.00;67220.22;5033481;28;20127;-88
2022/02/20 05:58:46;;;;;;;11.07;4.07;;;;;;;3.95;100.00;67217.59;5014842;28;20049;-90
2022/02/20 06:01:18;;;;;;;9.15;3.28;;;;;;;3.91;100.00;67210.44;5027354;28;20045;-88
2022/02/20 06:03:48;;;;;;;9.13;3.95;;;;;;;3.91;100.00;67210.44;5050081;28;20124;-86
2022/02/20 06:06:13;;;;;;;8.40;4.00;;;;;;;3.91;100.00;67213.06;5035918;28;20065;-86
2022/02/20 06:08:40;;;;;;;8.23;3.60;;;;;;;3.89;100.00;67208.75;5046752;28;20103;-86
2022/02/20 06:11:05;;;;;;;7.65;4.57;;;;;;;3.81;100.00;67200.28;5032361;28;20048;-89
2022/02/20 06:13:33;;;;;;;9.20;4.25;;;;;;;3.82;100.00;67203.47;5039105;28;20050;-85
2022/02/20 06:15:59;;;;;;;12.23;5.88;;;;;;;3.79;100.00;67198.03;5030102;28;20041;-86
2022/02/20 06:18:25;;;;;;;9.02;4.70;;;;;;;3.76;100.00;67199.91;5052144;28;20053;-86
2022/02/20 06:20:51;;;;;;;14.38;5.13;;;;;;;3.74;100.00;67186.56;5036772;28;20049;-86
2022/02/20 06:23:17;;;;;;;8.60;4.38;;;;;;;3.73;100.00;67190.69;5037562;28;20416;-85
2022/02/20 06:25:44;;;;;;;10.25;4.65;;;;;;;3.69;100.00;67186.75;5044935;28;20127;-85
2022/02/20 06:28:17;;;;;;;10.40;5.05;;;;;;;3.69;100.00;67188.84;5038507;28;20045;-86
2022/02/20 06:30:45;;;;;;;12.63;4.72;;;;;;;3.69;100.00;67191.47;5039019;28;20124;-85
2022/02/20 06:33:13;;;;;;;13.00;6.60;;;;;;;3.71;100.00;67188.44;5029576;28;20167;-85
2022/02/20 06:35:39;;;;;;;12.77;5.55;;;;;;;3.67;100.00;67184.50;5048733;28;20046;-85
2022/02/20 06:38:05;;;;;;;10.75;5.93;;;;;;;3.69;100.00;67181.50;5019030;28;20053;-84
2022/02/20 06:40:32;;;;;;;13.25;5.40;;;;;;;3.64;100.00;67183.19;5037776;28;20082;-85
2022/02/20 06:43:09;;;;;;;13.52;7.35;;;;;;;3.68;100.00;67179.78;5036898;28;20037;-85
2022/02/20 06:45:35;;;;;;;15.20;7.32;;;;;;;3.65;100.00;67182.22;5011967;28;20033;-89
2022/02/20 06:48:00;;;;;;;16.45;7.70;;;;;;;3.64;100.00;67181.13;5017155;28;20103;-92
2022/02/20 06:50:25;;;;;;;17.52;7.03;;;;;;;;;;5014752;28;20345;-85
2022/02/20 06:52:51;;;;;;;16.33;8.23;;;;;;;3.66;100.00;67185.44;5010994;28;20042;-89
2022/02/20 06:55:17;;;;;;;18.45;7.30;;;;;;;3.65;100.00;67182.22;5015365;28;20049;-88
2022/02/20 06:57:42;;;;;;;17.50;7.82;;;;;;;3.68;100.00;67188.25;5019715;28;20040;-92
2022/02/20 07:00:11;;;;;;;15.95;7.30;;;;;;;3.67;100.00;67183.94;5019627;28;20053;-92
2022/02/20 07:02:38;;;;;;;;;;;;;;;3.68;100.00;67188.25;5012965;28;20503;-91
2022/02/20 07:05:04;;;;;;;18.60;7.50;;;;;;;3.61;100.00;67180.38;5019036;28;19913;-90
2022/02/20 07:07:30;;;;;;;20.95;8.60;;;;;;;3.66;100.00;67182.81;5015747;28;20037;-86
2022/02/20 07:09:56;;;;;;;17.17;8.48;;;;;;;3.70;100.00;67189.94;5015464;28;20046;-87
2022/02/20 07:12:21;;;;;;;16.15;8.32;;;;;;;3.80;100.00;67204.44;5004842;28;20045;-85
2022/02/20 07:14:47;;;;;;;21.45;9.48;;;;;;;3.87;100.00;67205.94;5020459;28;20049;-87
2022/02/20 07:17:12;;;;;;;17.85;9.23;;;;;;;3.92;100.00;67211.59;5012622;28;20052;-85
2022/02/20 07:19:38;;;;;;;18.63;9.00;;;;;;;3.98;100.00;67220.97;5012843;28;20057;-88
2022/02/20 07:22:03;;;;;;;19.13;9.90;;;;;;;4.05;100.00;67228.88;4977984;28;20034;-85
2022/02/20 07:24:29;;;;;;;23.80;10.13;;;;;;;4.13;100.00;67237.91;4999409;28;20052;-85
2022/02/20 07:26:55;;;;;;;23.33;10.48;;;;;;;4.19;100.00;67242.03;5009913;28;20041;-86
2022/02/20 07:29:22;;;;;;;23.00;9.95;;;;;;;4.29;100.00;67255.41;4997099;28;20042;-87
2022/02/20 07:31:57;;;;;;;24.73;11.63;;;;;;;;;;5021789;28;20049;-90
2022/02/20 07:34:24;;;;;;;24.15;10.73;;;;;;;;;;5035425;28;20041;-87
2022/02/20 07:36:52;;;;;;;23.85;12.32;;;;;;;4.53;100.00;67274.59;5036426;28;20050;-86
2022/02/20 07:39:18;;;;;;;26.30;11.40;;;;;;;4.63;100.00;67290.59;5029630;28;20060;-89
2022/02/20 07:41:44;;;;;;;25.67;12.38;;;;;;;4.71;100.00;67299.06;5037440;28;20116;-86
2022/02/20 07:44:09;;;;;;;20.98;10.93;;;;;;;;;;5029960;28;20049;-86
2022/02/20 07:46:35;;;;;;;28.50;12.10;;;;;;;4.82;100.00;67314.09;5030693;28;20041;-89
2022/02/20 07:49:01;;;;;;;24.95;11.18;;;;;;;4.89;100.00;67321.44;5016429;28;20037;-86
2022/02/20 07:51:28;;;;;;;26.38;12.98;;;;;;;;;;5027938;28;20053;-84
2022/02/20 07:53:55;;;;;;;19.00;10.77;;;;;;;4.99;100.00;67332.75;5037089;28;20389;-84
2022/02/20 07:56:21;;;;;;;26.58;12.00;;;;;;;;;;5038996;28;20100;-84
2022/02/20 07:58:46;;;;;;;23.52;12.43;;;;;;;5.12;100.00;67344.81;5046925;28;20099;-84
2022/02/20 08:01:12;;;;;;;23.70;12.93;;;;;;;5.14;100.00;67347.03;5037047;28;20044;-84
2022/02/20 08:03:39;;;;;;;23.83;11.10;;;;;;;5.18;100.00;67351.56;5036433;28;20046;-85
2022/02/20 08:06:05;;;;;;;21.88;12.05;;;;;;;5.24;100.00;67359.88;5008117;28;20045;-86
2022/02/20 08:08:31;;;;;;;21.88;11.50;;;;;;;;;;5015264;28;20153;-87
2022/02/20 08:11:01;;;;;;;19.13;9.40;;;;;;;;;;5010335;28;20058;-85
2022/02/20 08:13:27;;;;;;;21.08;9.35;;;;;;;5.39;100.00;67374.72;5049429;28;20044;-87
2022/02/20 08:15:57;;;;;;;17.40;8.85;;;;;;;5.48;100.00;67386.97;5035528;28;20486;-85
2022/02/20 08:18:23;;;;;;;21.45;9.77;;;;;;;5.54;100.00;67393.19;5027239;28;20038;-85
2022/02/20 08:20:49;;;;;;;17.95;8.57;;;;;;;5.60;100.00;67399.97;5031187;28;20049;-91
2022/02/20 08:23:17;;;;;;;17.65;10.48;;;;;;;5.66;100.00;67409.38;5032413;28;20046;-85
2022/02/20 08:25:43;;;;;;;23.33;9.00;;;;;;;5.72;100.00;67410.31;5018160;28;20041;-86
2022/02/20 08:28:09;;;;;;;15.85;8.15;;;;;;;;;;5032578;28;20088;-86
2022/02/20 08:30:35;;;;;;;21.40;8.00;;;;;;;5.85;100.00;67425.03;5031531;28;20041;-86
2022/02/20 08:33:02;;;;;;;18.58;8.80;;;;;;;5.91;100.00;67433.88;5028448;28;20050;-86
2022/02/20 08:35:28;;;;;;;20.90;9.35;;;;;;;5.95;100.00;67441.06;5034002;28;20048;-86
2022/02/20 08:37:53;;;;;;;20.95;8.35;;;;;;;6.04;100.00;67451.81;5044096;28;20067;-86
2022/02/20 08:40:19;;;;;;;20.35;8.65;;;;;;;6.10;100.00;67453.31;5023525;28;20069;-88
2022/02/20 08:42:45;;;;;;;23.63;9.45;;;;;;;;;;5022542;28;20041;-87
2022/02/20 08:45:12;;;;;;;19.83;10.48;;;;;;;6.30;100.00;67475.34;5035177;28;20102;-88
2022/02/20 08:47:38;;;;;;;20.73;9.73;;;;;;;6.41;100.00;67489.28;5032809;28;20510;-88
2022/02/20 08:50:14;;;;;;;26.77;9.75;;;;;;;6.50;100.00;67497.41;5026368;28;20056;-88
2022/02/20 08:52:49;;;;;;;25.77;8.60;;;;;;;;;;5029525;28;20118;-86
2022/02/20 08:55:15;;;;;;;13.93;6.95;;;;;;;;;;5040798;28;20045;-87
2022/02/20 08:57:47;;;;;;;21.25;9.68;;;;;;;6.75;100.00;67524.53;5017864;28;20069;-86
2022/02/20 09:00:24;;;;;;;22.25;8.77;;;;;;;6.82;100.00;67535.13;5036956;28;20046;-87
2022/02/20 09:02:50;;;;;;;17.08;7.53;;;;;;;6.93;100.00;67544.34;5014924;28;20112;-86
2022/02/20 09:05:16;;;;;;;16.95;8.00;;;;;;;7.00;100.00;67552.25;5012132;28;20049;-85
2022/02/20 09:07:42;;;;;;;13.30;8.48;;;;;;;7.07;100.00;67560.19;5025639;28;20045;-85
2022/02/20 09:10:09;;;;;;;18.95;7.97;;;;;;;;;;5026512;28;20052;-86
2022/02/20 09:12:38;;;;;;;13.05;7.25;;;;;;;7.20;100.00;67569.03;5036018;28;20037;-87
2022/02/20 09:15:06;;;;;;;;;;;;;;;7.23;100.00;67580.94;5052504;28;20069;-86
2022/02/20 09:17:32;;;;;;;16.27;7.25;;;;;;;7.26;100.00;67580.56;5021803;28;19917;-87
2022/02/20 09:20:02;;;;;;;22.02;7.57;;;;;;;7.32;100.00;67587.91;5007043;28;20081;-87
2022/02/20 09:22:33;;;;;;;13.88;6.60;;;;;;;7.37;100.00;67588.28;4997636;28;20041;-87
2022/02/20 09:25:06;;;;;;;17.75;6.93;;;;;;;7.41;100.00;67592.78;5003620;28;20737;-87
2022/02/20 09:27:42;;;;;;;17.45;7.00;;;;;;;7.44;100.00;67601.47;4989085;28;20038;-86
2022/02/20 09:30:09;;;;;;;17.60;6.00;;;;;;;;;;4988958;28;20068;-86
2022/02/20 09:32:34;;;;;;;13.35;5.45;;;;;;;;;;5011468;28;20064;-86
2022/02/20 09:35:02;;;;;;;15.13;5.88;;;;;;;7.58;100.00;67616.75;5001999;28;20458;-86
2022/02/20 09:37:29;;;;;;;17.15;5.72;;;;;;;7.64;100.00;67623.56;4987927;28;20045;-86
2022/02/20 09:40:03;;;;;;;17.33;6.43;;;;;;;7.72;100.00;67631.50;4995129;28;20037;-87
2022/02/20 09:42:33;;;;;;;12.13;5.55;;;;;;;7.76;100.00;67631.28;5014077;28;20040;-88
2022/02/20 09:44:59;;;;;;;15.30;6.25;;;;;;;7.79;100.00;67639.41;5030543;28;20076;-87
2022/02/20 09:47:39;;;;;;;12.50;5.15;;;;;;;;;;5001401;28;20064;-88
2022/02/20 09:50:07;;;;;;;15.40;6.38;;;;;;;7.86;100.00;67642.59;5010555;28;20908;-87
2022/02/20 09:52:35;;;;;;;12.80;5.20;;;;;;;7.88;100.00;67649.59;5032841;28;20502;-87
2022/02/20 09:55:03;;;;;;;13.52;5.30;;;;;;;7.95;100.00;67651.66;5028696;28;20041;-87
2022/02/20 09:57:28;;;;;;;13.20;5.50;;;;;;;;;;5051766;28;20056;-87
2022/02/20 09:59:57;;;;;;;13.23;6.05;;;;;;;8.01;100.00;67659.00;5057743;28;20252;-87
2022/02/20 10:02:25;;;;;;;12.90;6.30;;;;;;;;;;5042554;28;20042;-87
2022/02/20 10:04:51;;;;;;;14.80;5.53;;;;;;;;;;5014356;28;20128;-87
2022/02/20 10:07:24;;;;;;;13.30;4.90;;;;;;;;;;5018122;28;20502;-87
2022/02/20 10:09:49;;;;;;;11.65;4.53;;;;;;;8.20;100.00;67685.28;5022665;28;20063;-87
2022/02/20 10:12:25;;;;;;;11.85;4.47;;;;;;;8.23;100.00;67688.09;5020914;28;20041;-87
2022/02/20 10:14:50;;;;;;;14.13;4.93;;;;;;;8.26;100.00;67694.72;5022695;28;20084;-88
2022/02/20 10:17:19;;;;;;;12.32;4.30;;;;;;;8.28;100.00;67694.31;5017253;28;20395;-87
2022/02/20 10:19:54;;;;;;;12.40;4.20;;;;;;;8.33;100.00;67699.44;5027576;28;20041;-87
2022/02/20 10:22:25;;;;;;;11.93;3.72;;;;;;;;;;5015400;28;20209;-87
2022/02/20 10:25:05;;;;;;;13.32;4.15;;;;;;;;;;5013518;28;20050;-87
2022/02/20 10:27:50;;;;;;;9.80;3.80;;;;;;;8.44;100.00;67711.34;4990839;28;20091;-88
2022/02/20 10:30:27;;;;;;;11.88;4.72;;;;;;;;;;4995777;28;20042;-87
2022/02/20 10:33:15;;;;;;;15.32;4.45;;;;;;;8.50;100.00;67718.13;4964390;28;20065;-88
2022/02/20 10:35:41;;;;;;;17.23;4.47;;;;;;;;;;5013868;28;20034;-88
2022/02/20 10:38:10;;;;;;;14.45;4.30;;;;;;;8.59;100.00;67728.34;5032299;28;20051;-88
2022/02/20 10:40:36;;;;;;;14.03;3.77;;;;;;;8.66;100.00;67735.69;5041198;28;20065;-88
2022/02/20 10:43:03;;;;;;;17.75;5.05;;;;;;;;;;5049275;28;20065;-88
2022/02/20 10:45:40;;;;;;;12.60;4.30;;;;;;;8.74;100.00;67744.75;5028705;28;20375;-87
2022/02/20 10:48:14;;;;;;;14.75;4.10;;;;;;;;;;5052198;28;20152;-87
2022/02/20 10:50:41;;;;;;;19.50;5.10;;;;;;;8.84;100.00;67756.09;5036453;28;20041;-88
2022/02/20 10:53:11;;;;;;;13.00;5.03;;;;;;;;;;5035131;28;20052;-87
2022/02/20 10:55:37;;;;;;;19.35;4.75;;;;;;;;;;5035602;28;20045;-88
2022/02/20 10:58:17;;;;;;;18.50;5.07;;;;;;;8.93;100.00;67766.28;5028973;28;20061;-87
2022/02/20 11:00:56;;;;;;;14.35;4.45;;;;;;;8.95;100.00;67762.69;5039421;28;20037;-88
2022/02/20 11:03:24;;;;;;;14.88;3.75;;;;;;;8.98;100.00;67766.09;5039775;28;20105;-88
2022/02/20 11:05:50;;;;;;;15.90;4.35;;;;;;;;;;5036383;28;20105;-88
2022/02/20 11:08:18;;;;;;;21.98;5.55;;;;;;;;;;5038697;28;20052;-88
2022/02/20 11:10:43;;;;;;;18.00;5.05;;;;;;;;;;5033261;28;20124;-87
2022/02/20 11:13:10;;;;;;;18.50;6.07;;;;;;;;;;5029768;28;20045;-88
2022/02/20 11:15:37;;;;;;;17.77;5.57;;;;;;;9.09;100.00;67783.28;5030600;28;20326;-88
2022/02/20 11:18:07;;;;;;;18.98;6.22;;;;;;;9.09;100.00;67777.97;5037895;28;20101;-87
2022/02/20 11:20:34;;;;;;;16.23;6.15;;;;;;;9.09;100.00;67777.97;5014017;28;20048;-88
2022/02/20 11:23:04;;;;;;;18.30;4.57;;;;;;;;;;5025468;28;20113;-88
2022/02/20 11:25:35;;;;;;;19.52;5.90;;;;;;;9.11;100.00;67785.56;5041937;28;20064;-87
2022/02/20 11:28:03;;;;;;;20.85;6.68;;;;;;;9.14;100.00;67788.97;5031085;28;20052;-88
2022/02/20 11:30:30;;;;;;;20.75;5.50;;;;;;;9.16;100.00;67785.91;5018016;28;20048;-88
2022/02/20 11:32:58;;;;;;;19.65;7.75;;;;;;;;;;5033718;28;20095;-88
2022/02/20 11:35:23;;;;;;;25.95;8.40;;;;;;;;;;5045751;28;20045;-88
2022/02/20 11:37:58;;;;;;;16.65;5.20;;;;;;;;;;5041010;28;20067;-88
2022/02/20 11:40:28;;;;;;;18.27;5.88;;;;;;;9.23;100.00;67799.16;5042674;28;20064;-88
2022/02/20 11:43:00;;;;;;;20.83;5.10;;;;;;;;;;5024348;28;20072;-88
2022/02/20 11:45:27;;;;;;;18.90;5.60;;;;;;;9.23;100.00;67794.41;5018871;28;20045;-88
2022/02/20 11:48:22;;;;;;;20.45;4.22;;;;;;;;;;5022657;28;20045;-88
2022/02/20 11:50:49;;;;;;;20.77;5.68;;;;;;;9.23;100.00;67791.19;5019359;28;20057;-88
2022/02/20 11:53:27;;;;;;;19.02;5.60;;;;;;;9.25;100.00;67802.00;5006334;28;20042;-87
2022/02/20 11:56:03;;;;;;;16.65;4.82;;;;;;;;;;5025512;28;20041;-88
2022/02/20 11:58:30;;;;;;;21.13;6.15;;;;;;;9.29;100.00;67805.41;5036357;28;20130;-88
2022/02/20 12:00:56;;;;;;;21.48;5.43;;;;;;;9.29;100.00;67805.41;5026375;28;20042;-88
2022/02/20 12:03:31;;;;;;;24.73;7.05;;;;;;;9.31;100.00;67802.34;5034039;28;20047;-88
2022/02/20 12:06:26;;;;;;;17.25;4.97;;;;;;;;;;5018241;28;20069;-88
2022/02/20 12:08:58;;;;;;;21.52;5.35;;;;;;;;;;5012130;28;20046;-88
2022/02/20 12:11:28;;;;;;;21.42;6.55;;;;;;;;;;5064300;28;20041;-88